createdAt,value
2023-02-14T00:01:21.382Z,4.10
2023-02-14T00:05:22.965Z,4.10
2023-02-14T00:09:24.647Z,4.10
2023-02-14T00:13:26.224Z,4.10
2023-02-14T00:17:27.992Z,4.20
2023-02-14T00:21:30.080Z,4.20
2023-02-14T00:25:33.836Z,4.10
2023-02-14T00:29:35.456Z,4.10
2023-02-14T00:33:37.264Z,4.00
2023-02-14T00:37:38.842Z,4.10
2023-02-14T00:41:40.956Z,4.10
2023-02-14T00:45:42.670Z,3.90
2023-02-14T00:49:44.264Z,3.70
2023-02-14T00:53:46.471Z,3.70
2023-02-14T00:57:48.080Z,3.80
2023-02-14T01:01:49.819Z,4.00
2023-02-14T01:05:51.895Z,3.90
2023-02-14T01:09:53.480Z,4.00
2023-02-14T01:13:55.813Z,4.00
2023-02-14T01:17:58.264Z,4.00
2023-02-14T01:22:00.161Z,3.90
2023-02-14T01:26:05.506Z,3.90
2023-02-14T01:30:07.742Z,3.80
2023-02-14T01:34:09.424Z,3.80
2023-02-14T01:38:11.077Z,3.60
2023-02-14T01:42:12.714Z,3.60
2023-02-14T01:46:14.289Z,3.60
2023-02-14T01:50:19.435Z,3.70
2023-02-14T01:54:22.707Z,3.50
2023-02-14T01:58:26.301Z,3.50
2023-02-14T02:02:27.876Z,3.60
2023-02-14T02:06:31.039Z,3.60
2023-02-14T02:10:32.740Z,3.50
2023-02-14T02:14:34.765Z,3.50
2023-02-14T02:18:45.683Z,3.30
2023-02-14T02:22:51.246Z,3.20
2023-02-14T02:27:08.523Z,3.30
2023-02-14T02:31:16.504Z,3.20
2023-02-14T02:35:21.219Z,3.30
2023-02-14T02:39:30.756Z,3.30
2023-02-14T02:43:35.424Z,3.20
2023-02-14T02:47:49.340Z,3.30
2023-02-14T02:52:14.441Z,3.50
2023-02-14T02:56:40.701Z,3.40
2023-02-14T03:00:42.719Z,3.20
2023-02-14T03:04:53.439Z,2.90
2023-02-14T03:08:55.416Z,2.80
2023-02-14T03:13:15.874Z,2.80
2023-02-14T03:17:24.809Z,2.80
2023-02-14T03:21:26.413Z,2.90
2023-02-14T03:25:27.995Z,3.00
2023-02-14T03:29:35.815Z,3.00
2023-02-14T03:33:43.685Z,3.00
2023-02-14T03:37:51.441Z,3.10
2023-02-14T03:42:06.291Z,3.00
2023-02-14T03:46:34.432Z,2.80
2023-02-14T03:50:37.399Z,2.90
2023-02-14T04:03:35.870Z,3.30
2023-02-14T04:07:48.773Z,3.30
2023-02-14T04:11:50.529Z,3.40
2023-02-14T04:15:52.346Z,3.10
2023-02-14T04:19:54.041Z,2.90
2023-02-14T04:23:55.817Z,2.90
2023-02-14T04:27:57.429Z,2.80
2023-02-14T04:31:59.088Z,2.80
2023-02-14T04:36:00.875Z,2.80
2023-02-14T04:40:02.501Z,2.80
2023-02-14T04:44:06.026Z,2.80
2023-02-14T04:48:07.778Z,2.80
2023-02-14T04:52:09.582Z,2.90
2023-02-14T04:56:11.209Z,2.80
2023-02-14T05:00:13.298Z,2.70
2023-02-14T05:04:15.094Z,2.60
2023-02-14T05:08:16.692Z,2.70
2023-02-14T05:12:18.348Z,2.70
2023-02-14T05:16:20.316Z,2.60
2023-02-14T05:20:22.210Z,2.40
2023-02-14T05:24:23.910Z,2.20
2023-02-14T05:28:25.609Z,2.00
2023-02-14T05:32:27.237Z,1.90
2023-02-14T05:36:28.835Z,2.10
2023-02-14T05:40:30.443Z,2.10
2023-02-14T05:44:32.065Z,2.00
2023-02-14T05:48:34.144Z,2.10
2023-02-14T05:52:36.020Z,2.00
2023-02-14T05:56:37.682Z,1.90
2023-02-14T06:00:41.188Z,2.00
2023-02-14T06:04:43.273Z,2.00
2023-02-14T06:08:44.917Z,1.90
2023-02-14T06:12:47.923Z,1.80
2023-02-14T06:16:49.589Z,1.80
2023-02-14T06:20:53.016Z,1.80
2023-02-14T06:24:54.564Z,1.80
2023-02-14T06:28:56.864Z,1.80
2023-02-14T06:32:58.458Z,1.70
2023-02-14T06:37:00.137Z,1.80
2023-02-14T06:41:09.056Z,1.90
2023-02-14T06:45:10.684Z,2.00
2023-02-14T06:49:12.345Z,2.10
2023-02-14T06:53:16.990Z,2.10
2023-02-14T06:57:18.821Z,2.10
2023-02-14T07:01:20.433Z,2.10
2023-02-14T07:05:22.312Z,2.10
2023-02-14T07:09:24.018Z,2.00
2023-02-14T07:13:26.038Z,2.20
2023-02-14T07:17:27.804Z,2.20
2023-02-14T07:21:29.551Z,2.30
2023-02-14T07:25:31.198Z,2.40
2023-02-14T07:29:32.923Z,2.40
2023-02-14T07:33:34.572Z,2.60
2023-02-14T07:37:36.385Z,2.60
2023-02-14T07:41:39.824Z,2.80
2023-02-14T07:45:42.517Z,3.10
2023-02-14T07:49:44.824Z,3.30
2023-02-14T07:53:46.617Z,3.60
2023-02-14T07:57:49.132Z,3.70
2023-02-14T08:01:51.252Z,3.90
2023-02-14T08:05:59.118Z,4.10
2023-02-14T08:10:00.697Z,4.20
2023-02-14T08:14:02.658Z,4.20
2023-02-14T08:18:08.231Z,4.50
2023-02-14T08:22:09.934Z,4.60
2023-02-14T08:26:18.685Z,4.80
2023-02-14T08:30:20.337Z,5.00
2023-02-14T08:34:22.129Z,5.10
2023-02-14T08:38:23.783Z,5.30
2023-02-14T08:42:25.509Z,5.40
2023-02-14T08:46:28.263Z,5.50
2023-02-14T08:50:32.030Z,5.70
2023-02-14T08:54:34.766Z,6.10
2023-02-14T08:58:38.624Z,6.20
2023-02-14T09:02:40.271Z,6.30
2023-02-14T09:06:41.978Z,6.50
2023-02-14T09:10:43.572Z,6.90
2023-02-14T09:14:45.224Z,7.10
2023-02-14T09:18:47.494Z,7.10
2023-02-14T09:22:49.388Z,7.20
2023-02-14T09:26:51.001Z,7.30
2023-02-14T09:30:54.452Z,7.80
2023-02-14T09:34:56.233Z,8.00
2023-02-14T09:38:57.819Z,8.10
2023-02-14T09:43:04.952Z,8.10
2023-02-14T09:47:11.298Z,8.10
2023-02-14T09:51:18.748Z,8.30
2023-02-14T09:55:20.420Z,8.50
2023-02-14T09:59:22.012Z,8.70
2023-02-14T10:03:29.855Z,8.80
2023-02-14T10:07:43.987Z,8.90
2023-02-14T10:11:46.157Z,9.00
2023-02-14T10:15:54.729Z,9.10
2023-02-14T10:19:57.953Z,9.30
2023-02-14T10:24:16.035Z,9.50
2023-02-14T10:28:17.679Z,9.60
2023-02-14T10:32:24.701Z,9.50
2023-02-14T10:36:46.669Z,9.70
2023-02-14T10:40:51.256Z,9.80
2023-02-14T10:44:58.773Z,10.00
2023-02-14T10:49:13.075Z,10.00
2023-02-14T10:53:33.345Z,10.10
2023-02-14T10:57:37.189Z,10.50
2023-02-14T11:01:38.959Z,10.20
2023-02-14T11:05:46.536Z,10.50
2023-02-14T11:09:48.488Z,10.80
2023-02-14T11:13:50.165Z,11.00
2023-02-14T11:18:07.890Z,11.20
2023-02-14T11:22:10.303Z,11.20
2023-02-14T11:26:16.552Z,10.90
2023-02-14T11:30:38.452Z,11.00
2023-02-14T11:34:52.714Z,11.00
2023-02-14T11:39:17.633Z,11.20
2023-02-14T11:43:20.525Z,11.10
2023-02-14T11:47:27.095Z,11.10
2023-02-14T11:51:36.267Z,11.10
2023-02-14T11:55:38.146Z,11.30
2023-02-14T11:59:51.930Z,11.40
2023-02-14T12:03:54.701Z,11.40
2023-02-14T12:08:04.140Z,11.70
2023-02-14T12:12:15.680Z,11.70
2023-02-14T12:16:21.445Z,11.70
2023-02-14T12:20:26.092Z,11.80
2023-02-14T12:24:31.337Z,11.80
2023-02-14T12:28:39.399Z,12.00
2023-02-14T12:32:51.712Z,11.90
2023-02-14T12:37:12.232Z,12.10
2023-02-14T12:41:20.009Z,12.00
2023-02-14T12:45:21.721Z,12.30
2023-02-14T12:49:23.360Z,12.20
2023-02-14T12:53:40.274Z,12.40
2023-02-14T12:57:46.203Z,12.40
2023-02-14T13:01:47.823Z,12.60
2023-02-14T13:05:49.387Z,12.60
2023-02-14T13:09:59.207Z,12.70
2023-02-14T13:14:04.678Z,12.80
2023-02-14T13:18:26.590Z,12.80
2023-02-14T13:22:29.867Z,12.80
2023-02-14T13:26:36.995Z,12.80
2023-02-14T13:30:41.641Z,13.00
2023-02-14T13:34:44.573Z,13.10
2023-02-14T13:38:49.273Z,13.00
2023-02-14T13:42:53.303Z,13.10
2023-02-14T13:46:54.980Z,13.00
2023-02-14T13:50:58.522Z,12.90
2023-02-14T13:55:02.453Z,12.90
2023-02-14T13:59:05.458Z,12.70
2023-02-14T14:03:11.409Z,12.60
2023-02-14T14:07:14.417Z,12.70
2023-02-14T14:11:22.137Z,12.60
2023-02-14T14:15:24.005Z,12.40
2023-02-14T14:19:25.795Z,12.10
2023-02-14T14:23:32.399Z,12.00
2023-02-14T14:27:41.625Z,11.90
2023-02-14T14:31:43.347Z,11.90
2023-02-14T14:36:07.604Z,11.80
2023-02-14T14:40:19.443Z,11.70
2023-02-14T14:44:21.186Z,11.80
2023-02-14T14:48:30.901Z,11.70
2023-02-14T14:52:41.580Z,11.70
2023-02-14T14:56:59.258Z,11.30
2023-02-14T15:01:02.009Z,11.20
2023-02-14T15:05:22.383Z,11.20
2023-02-14T15:09:33.751Z,11.20
2023-02-14T15:13:50.376Z,11.10
2023-02-14T15:17:52.017Z,11.10
2023-02-14T15:21:53.649Z,11.00
2023-02-14T15:25:55.459Z,10.80
2023-02-14T15:30:23.762Z,10.80
2023-02-14T15:34:31.278Z,10.80
2023-02-14T15:38:35.216Z,10.90
2023-02-14T15:42:43.384Z,11.00
2023-02-14T15:46:46.461Z,11.00
2023-02-14T15:50:50.258Z,11.00
2023-02-14T15:54:51.931Z,11.00
2023-02-14T15:58:57.477Z,10.90
2023-02-14T16:03:04.953Z,10.80
2023-02-14T16:07:25.009Z,10.60
2023-02-14T16:11:31.926Z,10.40
2023-02-14T16:15:34.689Z,10.40
2023-02-14T16:19:43.474Z,10.20
2023-02-14T16:23:46.250Z,10.10
2023-02-14T16:27:47.938Z,9.90
2023-02-14T16:32:15.150Z,9.70
2023-02-14T16:36:23.625Z,9.70
2023-02-14T16:40:26.312Z,9.60
2023-02-14T16:44:28.006Z,9.50
2023-02-14T16:48:29.580Z,9.30
2023-02-14T16:52:31.153Z,9.20
2023-02-14T16:56:33.816Z,9.10
2023-02-14T17:00:35.887Z,9.00
2023-02-14T17:04:37.479Z,8.90
2023-02-14T17:08:40.911Z,8.60
2023-02-14T17:12:44.007Z,8.50
2023-02-14T17:16:45.660Z,8.50
2023-02-14T17:20:48.302Z,8.30
2023-02-14T17:24:50.619Z,8.30
2023-02-14T17:28:52.293Z,8.20
2023-02-14T17:32:53.902Z,8.20
2023-02-14T17:36:55.666Z,8.10
2023-02-14T17:40:57.414Z,7.90
2023-02-14T17:44:59.081Z,7.80
2023-02-14T17:49:02.637Z,7.60
2023-02-14T17:53:04.230Z,7.50
2023-02-14T17:57:05.904Z,7.40
2023-02-14T18:01:11.726Z,6.80
2023-02-14T18:05:13.326Z,6.50
2023-02-14T18:09:14.925Z,6.90
2023-02-14T18:13:16.584Z,7.00
2023-02-14T18:17:18.381Z,7.00
2023-02-14T18:21:21.902Z,6.70
2023-02-14T18:25:23.528Z,6.60
2023-02-14T18:29:25.122Z,6.40
2023-02-14T18:33:26.714Z,6.30
2023-02-14T18:37:28.334Z,6.30
2023-02-14T18:41:30.342Z,6.20
2023-02-14T18:45:35.279Z,5.90
2023-02-14T18:49:36.893Z,6.10
2023-02-14T18:53:39.329Z,6.00
2023-02-14T18:57:41.005Z,6.00
2023-02-14T19:01:43.823Z,5.90
2023-02-14T19:05:45.428Z,5.90
2023-02-14T19:09:47.041Z,6.00
2023-02-14T19:13:55.719Z,5.80
2023-02-14T19:17:57.312Z,5.80
2023-02-14T19:21:59.396Z,5.90
2023-02-14T19:26:08.595Z,6.10
2023-02-14T19:30:10.722Z,5.80
2023-02-14T19:34:17.693Z,5.80
2023-02-14T19:38:27.154Z,5.90
2023-02-14T19:42:28.742Z,6.10
2023-02-14T19:46:30.777Z,6.30
2023-02-14T19:50:32.352Z,6.40
2023-02-14T19:54:37.630Z,6.50
2023-02-14T19:58:39.379Z,6.50
2023-02-14T20:02:45.715Z,6.50
2023-02-14T20:06:48.456Z,6.40
2023-02-14T20:10:50.125Z,6.40
2023-02-14T20:14:54.051Z,6.50
2023-02-14T20:18:56.304Z,6.60
2023-02-14T20:22:57.910Z,6.80
2023-02-14T20:27:00.494Z,6.80
2023-02-14T20:31:06.215Z,6.70
2023-02-14T20:35:08.086Z,6.80
2023-02-14T20:39:10.923Z,6.80
2023-02-14T20:43:15.330Z,6.70
2023-02-14T20:47:17.440Z,6.60
2023-02-14T20:51:20.706Z,6.20
2023-02-14T20:55:22.645Z,6.00
2023-02-14T20:59:27.258Z,6.10
2023-02-14T21:03:32.113Z,6.50
2023-02-14T21:07:33.770Z,6.60
2023-02-14T21:11:35.501Z,6.70
2023-02-14T21:15:37.180Z,6.60
2023-02-14T21:19:38.818Z,6.60
2023-02-14T21:23:40.924Z,6.30
2023-02-14T21:27:42.639Z,6.10
2023-02-14T21:31:44.274Z,5.70
2023-02-14T21:35:46.005Z,5.70
2023-02-14T21:39:47.716Z,5.60
2023-02-14T21:43:50.124Z,5.60
2023-02-14T21:48:10.531Z,5.80
2023-02-14T21:52:12.278Z,5.80
2023-02-14T21:56:17.989Z,5.80
2023-02-14T22:00:19.822Z,5.80
2023-02-14T22:04:21.377Z,5.70
2023-02-14T22:08:22.966Z,5.80
2023-02-14T22:12:24.600Z,5.80
2023-02-14T22:16:26.636Z,5.90
2023-02-14T22:20:28.261Z,6.30
2023-02-14T22:24:29.830Z,6.30
2023-02-14T22:28:31.475Z,6.20
2023-02-14T22:32:33.120Z,6.20
2023-02-14T22:36:35.227Z,6.10
2023-02-14T22:40:36.873Z,5.90
2023-02-14T22:44:38.558Z,5.80
2023-02-14T22:48:40.326Z,5.60
2023-02-14T22:52:41.905Z,5.50
2023-02-14T22:56:44.860Z,5.40
2023-02-14T23:00:46.491Z,5.30
2023-02-14T23:04:49.051Z,5.40
2023-02-14T23:08:50.966Z,5.30
2023-02-14T23:13:11.266Z,5.00
2023-02-14T23:17:14.540Z,5.00
2023-02-14T23:21:34.932Z,4.70
2023-02-14T23:25:36.532Z,4.30
2023-02-14T23:29:38.136Z,4.30
2023-02-14T23:33:39.704Z,4.30
2023-02-14T23:37:41.762Z,4.30
2023-02-14T23:41:49.693Z,4.40
2023-02-14T23:45:52.077Z,4.70
2023-02-14T23:49:53.753Z,4.80
2023-02-14T23:53:55.481Z,5.00
2023-02-14T23:57:57.130Z,5.00
